createdAt,value
2022-08-19T04:01:12.701Z,100.00
2022-08-19T04:03:41.295Z,100.00
2022-08-19T04:06:13.550Z,100.00
2022-08-19T04:08:41.578Z,100.00
2022-08-19T04:11:10.351Z,100.00
2022-08-19T04:13:38.748Z,100.00
2022-08-19T04:16:07.585Z,100.00
2022-08-19T04:18:36.588Z,100.00
2022-08-19T04:21:05.013Z,100.00
2022-08-19T04:23:33.537Z,100.00
2022-08-19T04:26:01.460Z,100.00
2022-08-19T04:28:31.162Z,100.00
2022-08-19T04:30:59.438Z,100.00
2022-08-19T04:33:29.475Z,100.00
2022-08-19T04:35:59.193Z,100.00
2022-08-19T04:38:27.020Z,100.00
2022-08-19T04:41:12.354Z,100.00
2022-08-19T04:43:40.528Z,100.00
2022-08-19T04:46:09.033Z,100.00
2022-08-19T04:48:38.001Z,100.00
2022-08-19T04:51:18.269Z,100.00
2022-08-19T04:53:46.086Z,100.00
2022-08-19T04:56:17.500Z,100.00
2022-08-19T04:58:46.818Z,100.00
2022-08-19T05:01:15.138Z,100.00
2022-08-19T05:03:42.784Z,100.00
2022-08-19T05:06:13.251Z,100.00
2022-08-19T05:08:44.174Z,100.00
2022-08-19T05:11:14.398Z,100.00
2022-08-19T05:13:43.215Z,100.00
2022-08-19T05:16:12.032Z,100.00
2022-08-19T05:18:53.777Z,100.00
2022-08-19T05:21:40.703Z,100.00
2022-08-19T05:24:09.927Z,100.00
2022-08-19T05:26:38.104Z,100.00
2022-08-19T05:29:06.238Z,100.00
2022-08-19T05:31:36.699Z,100.00
2022-08-19T05:34:18.170Z,100.00
2022-08-19T05:36:48.561Z,100.00
2022-08-19T05:39:20.347Z,100.00
2022-08-19T05:41:50.388Z,100.00
2022-08-19T05:44:19.130Z,100.00
2022-08-19T05:46:47.952Z,100.00
2022-08-19T05:49:16.568Z,100.00
2022-08-19T05:51:45.397Z,100.00
2022-08-19T05:54:14.336Z,100.00
2022-08-19T05:56:44.381Z,100.00
2022-08-19T05:59:12.660Z,100.00
2022-08-19T06:01:43.000Z,100.00
2022-08-19T06:04:10.846Z,100.00
2022-08-19T06:06:39.006Z,100.00
2022-08-19T06:09:08.757Z,100.00
2022-08-19T06:11:38.840Z,100.00
2022-08-19T06:14:16.579Z,100.00
2022-08-19T06:16:45.465Z,100.00
2022-08-19T06:19:16.608Z,100.00
2022-08-19T06:21:47.537Z,100.00
2022-08-19T06:24:17.857Z,100.00
2022-08-19T06:29:24.726Z,100.00
2022-08-19T06:31:55.002Z,100.00
2022-08-19T06:34:22.825Z,100.00
2022-08-19T06:36:53.293Z,100.00
2022-08-19T06:39:23.180Z,100.00
2022-08-19T06:41:55.597Z,100.00
2022-08-19T06:44:31.935Z,100.00
2022-08-19T06:46:59.681Z,100.00
2022-08-19T06:49:31.833Z,100.00
2022-08-19T06:52:01.920Z,100.00
2022-08-19T06:54:30.819Z,100.00
2022-08-19T06:56:59.029Z,100.00
2022-08-19T06:59:29.026Z,100.00
2022-08-19T07:01:58.448Z,100.00
2022-08-19T07:04:28.017Z,100.00
2022-08-19T07:06:59.900Z,100.00
2022-08-19T07:09:57.955Z,100.00
2022-08-19T07:12:30.661Z,100.00
2022-08-19T07:15:00.546Z,100.00
2022-08-19T07:17:29.779Z,100.00
2022-08-19T07:19:58.942Z,100.00
2022-08-19T07:22:34.745Z,100.00
2022-08-19T07:25:04.478Z,100.00
2022-08-19T07:27:33.699Z,100.00
2022-08-19T07:30:02.848Z,100.00
2022-08-19T07:32:31.609Z,100.00
2022-08-19T07:35:01.695Z,100.00
2022-08-19T07:37:33.085Z,100.00
2022-08-19T07:40:02.020Z,100.00
2022-08-19T07:42:30.444Z,100.00
2022-08-19T07:44:58.689Z,100.00
2022-08-19T07:47:49.270Z,100.00
2022-08-19T07:50:17.086Z,100.00
2022-08-19T07:52:48.818Z,100.00
2022-08-19T07:55:41.685Z,100.00
2022-08-19T07:58:06.755Z,100.00
2022-08-19T08:00:34.509Z,100.00
2022-08-19T08:03:03.419Z,100.00
2022-08-19T08:05:48.661Z,100.00
2022-08-19T08:08:33.921Z,100.00
2022-08-19T08:11:02.299Z,100.00
2022-08-19T08:13:30.079Z,100.00
2022-08-19T08:15:58.168Z,100.00
2022-08-19T08:18:27.462Z,100.00
2022-08-19T08:20:56.148Z,100.00
2022-08-19T08:23:27.278Z,100.00
2022-08-19T08:25:57.985Z,100.00
2022-08-19T08:28:29.575Z,100.00
2022-08-19T08:30:59.046Z,100.00
2022-08-19T08:33:34.817Z,100.00
2022-08-19T08:36:04.201Z,100.00
2022-08-19T08:38:38.350Z,100.00
2022-08-19T08:41:20.339Z,100.00
2022-08-19T08:43:51.832Z,100.00
2022-08-19T08:46:30.507Z,100.00
2022-08-19T08:49:08.272Z,100.00
2022-08-19T08:54:16.142Z,100.00
2022-08-19T08:56:46.931Z,100.00
2022-08-19T08:59:21.183Z,100.00
2022-08-19T09:01:49.357Z,100.00
2022-08-19T09:04:18.544Z,99.79
2022-08-19T09:06:56.862Z,99.85
2022-08-19T09:09:33.357Z,96.96
2022-08-19T09:12:11.889Z,97.32
2022-08-19T09:14:52.332Z,96.05
2022-08-19T09:17:31.674Z,96.58
2022-08-19T09:20:09.249Z,96.32
2022-08-19T09:22:38.362Z,93.91
2022-08-19T09:25:08.586Z,94.77
2022-08-19T09:27:43.132Z,95.51
2022-08-19T09:30:24.741Z,96.42
2022-08-19T09:32:53.924Z,96.87
2022-08-19T09:35:24.989Z,91.75
2022-08-19T09:37:57.755Z,92.71
2022-08-19T09:40:30.013Z,92.06
2022-08-19T09:43:10.094Z,92.90
2022-08-19T09:45:41.614Z,92.29
2022-08-19T09:48:09.658Z,90.87
2022-08-19T09:50:51.564Z,90.33
2022-08-19T09:53:25.204Z,87.50
2022-08-19T09:55:53.621Z,88.08
2022-08-19T09:58:26.094Z,88.05
2022-08-19T10:00:54.578Z,88.12
2022-08-19T10:03:25.608Z,86.90
2022-08-19T10:06:00.740Z,85.86
2022-08-19T10:08:30.404Z,86.42
2022-08-19T10:10:59.265Z,84.76
2022-08-19T10:13:32.827Z,84.32
2022-08-19T10:16:05.866Z,84.65
2022-08-19T10:18:35.172Z,85.11
2022-08-19T10:21:11.594Z,83.70
2022-08-19T10:23:41.078Z,85.01
2022-08-19T10:26:09.420Z,82.84
2022-08-19T10:28:39.083Z,82.59
2022-08-19T10:31:08.410Z,81.87
2022-08-19T10:33:41.706Z,81.32
2022-08-19T10:36:24.923Z,80.84
2022-08-19T10:38:57.030Z,80.92
2022-08-19T10:41:27.824Z,80.18
2022-08-19T10:43:57.485Z,79.19
2022-08-19T10:46:33.389Z,77.19
2022-08-19T10:49:02.381Z,77.05
2022-08-19T10:51:51.173Z,77.53
2022-08-19T10:54:19.282Z,75.95
2022-08-19T10:56:58.026Z,76.89
2022-08-19T10:59:31.469Z,78.34
2022-08-19T11:02:03.725Z,77.43
2022-08-19T11:04:33.085Z,77.05
2022-08-19T11:07:01.972Z,76.51
2022-08-19T11:09:33.937Z,75.80
2022-08-19T11:12:03.012Z,76.69
2022-08-19T11:14:34.014Z,76.18
2022-08-19T11:17:02.749Z,75.94
2022-08-19T11:19:30.942Z,74.44
2022-08-19T11:22:00.303Z,73.81
2022-08-19T11:24:30.600Z,72.28
2022-08-19T11:27:05.400Z,71.26
2022-08-19T11:29:35.255Z,71.71
2022-08-19T11:32:07.289Z,72.58
2022-08-19T11:34:36.241Z,70.98
2022-08-19T11:37:04.532Z,71.52
2022-08-19T11:39:36.332Z,70.32
2022-08-19T11:42:25.138Z,70.98
2022-08-19T11:44:53.428Z,70.32
2022-08-19T11:47:21.469Z,69.38
2022-08-19T11:49:49.256Z,68.02
2022-08-19T11:52:17.158Z,69.32
2022-08-19T11:54:46.097Z,66.22
2022-08-19T11:57:15.739Z,66.58
2022-08-19T11:59:43.307Z,66.33
2022-08-19T12:02:11.629Z,65.84
2022-08-19T12:04:39.314Z,67.18
2022-08-19T12:07:07.443Z,66.88
2022-08-19T12:09:35.390Z,66.24
2022-08-19T12:12:05.555Z,64.96
2022-08-19T12:14:33.180Z,63.89
2022-08-19T12:17:00.980Z,63.13
2022-08-19T12:19:29.184Z,60.03
2022-08-19T12:22:02.360Z,59.40
2022-08-19T12:24:32.904Z,61.16
2022-08-19T12:27:03.121Z,59.29
2022-08-19T12:29:33.255Z,59.26
2022-08-19T12:32:02.103Z,59.30
2022-08-19T12:34:31.737Z,58.33
2022-08-19T12:37:00.096Z,57.93
2022-08-19T12:39:27.787Z,56.81
2022-08-19T12:41:55.797Z,57.73
2022-08-19T12:44:29.357Z,57.27
2022-08-19T12:46:58.848Z,59.21
2022-08-19T12:49:54.711Z,58.20
2022-08-19T12:52:16.580Z,58.15
2022-08-19T12:54:49.237Z,56.98
2022-08-19T12:57:24.490Z,55.84
2022-08-19T13:00:00.321Z,54.16
2022-08-19T13:02:29.670Z,53.08
2022-08-19T13:04:57.757Z,52.60
2022-08-19T13:07:25.413Z,52.72
2022-08-19T13:09:53.330Z,50.55
2022-08-19T13:12:24.936Z,50.95
2022-08-19T13:14:52.979Z,49.62
2022-08-19T13:17:20.861Z,50.17
2022-08-19T13:19:49.853Z,49.29
2022-08-19T13:22:17.769Z,50.05
2022-08-19T13:24:47.444Z,48.19
2022-08-19T13:27:15.973Z,47.54
2022-08-19T13:30:01.952Z,47.71
2022-08-19T13:32:48.966Z,47.53
2022-08-19T13:35:19.030Z,47.56
2022-08-19T13:37:46.598Z,45.36
2022-08-19T13:40:19.015Z,47.00
2022-08-19T13:42:48.932Z,45.60
2022-08-19T13:45:18.831Z,45.51
2022-08-19T13:47:48.142Z,44.78
2022-08-19T13:50:20.408Z,44.23
2022-08-19T13:52:49.260Z,45.63
2022-08-19T13:55:24.821Z,44.90
2022-08-19T13:57:53.814Z,43.92
2022-08-19T14:00:24.770Z,43.74
2022-08-19T14:02:53.799Z,44.32
2022-08-19T14:05:23.357Z,43.88
2022-08-19T14:07:51.385Z,43.92
2022-08-19T14:10:19.769Z,43.48
2022-08-19T14:12:47.431Z,42.94
2022-08-19T14:15:16.606Z,42.10
2022-08-19T14:17:47.453Z,41.87
2022-08-19T14:20:17.789Z,42.21
2022-08-19T14:22:49.786Z,41.13
2022-08-19T14:25:19.880Z,41.27
2022-08-19T14:27:48.307Z,41.47
2022-08-19T14:30:18.885Z,41.45
2022-08-19T14:32:46.724Z,41.93
2022-08-19T14:35:16.174Z,41.23
2022-08-19T14:37:46.272Z,40.88
2022-08-19T14:40:16.958Z,40.72
2022-08-19T14:42:45.717Z,41.38
2022-08-19T14:45:14.340Z,40.01
2022-08-19T14:47:42.001Z,39.96
2022-08-19T14:50:15.288Z,40.25
2022-08-19T14:52:46.643Z,39.93
2022-08-19T14:55:16.216Z,39.81
2022-08-19T14:57:45.005Z,40.02
2022-08-19T15:00:14.640Z,46.06
2022-08-19T15:02:44.909Z,40.99
2022-08-19T15:05:13.156Z,40.62
2022-08-19T15:07:41.795Z,40.72
2022-08-19T15:10:11.801Z,41.64
2022-08-19T15:12:41.668Z,41.89
2022-08-19T15:15:13.588Z,42.30
2022-08-19T15:17:54.328Z,42.71
2022-08-19T15:20:23.669Z,43.19
2022-08-19T15:22:52.187Z,42.57
2022-08-19T15:25:21.169Z,43.32
2022-08-19T15:27:51.048Z,43.55
2022-08-19T15:30:23.165Z,44.25
2022-08-19T15:32:50.916Z,43.79
2022-08-19T15:35:19.368Z,44.23
2022-08-19T15:37:47.294Z,43.88
2022-08-19T15:40:14.951Z,43.68
2022-08-19T15:42:43.421Z,44.64
2022-08-19T15:45:14.159Z,44.31
2022-08-19T15:47:42.433Z,45.08
2022-08-19T15:50:13.173Z,45.21
2022-08-19T15:52:49.449Z,45.93
2022-08-19T15:55:32.653Z,45.90
2022-08-19T15:58:36.538Z,51.33
2022-08-19T16:01:27.394Z,50.48
2022-08-19T16:04:15.855Z,49.98
2022-08-19T16:06:46.118Z,47.91
2022-08-19T16:09:14.217Z,46.93
2022-08-19T16:11:45.753Z,46.74
2022-08-19T16:14:14.415Z,47.38
2022-08-19T16:16:46.544Z,47.40
2022-08-19T16:19:16.515Z,47.04
2022-08-19T16:21:46.011Z,46.36
2022-08-19T16:24:15.311Z,46.65
2022-08-19T16:26:44.129Z,45.22
2022-08-19T16:29:13.351Z,45.64
2022-08-19T16:31:45.995Z,45.48
2022-08-19T16:34:14.880Z,45.48
2022-08-19T16:36:43.385Z,44.49
2022-08-19T16:39:12.483Z,45.50
2022-08-19T16:41:41.216Z,45.10
2022-08-19T16:44:11.586Z,45.18
2022-08-19T16:46:41.550Z,44.69
2022-08-19T16:49:12.318Z,45.39
2022-08-19T16:51:40.484Z,45.53
2022-08-19T16:54:08.718Z,44.58
2022-08-19T16:56:36.779Z,44.71
2022-08-19T16:59:04.896Z,45.29
2022-08-19T17:01:32.610Z,45.28
2022-08-19T17:04:00.277Z,44.44
2022-08-19T17:06:31.018Z,45.21
2022-08-19T17:09:01.074Z,44.41
2022-08-19T17:11:32.872Z,44.94
2022-08-19T17:14:01.978Z,44.43
2022-08-19T17:16:32.483Z,44.08
2022-08-19T17:19:02.978Z,43.38
2022-08-19T17:21:34.532Z,45.12
2022-08-19T17:24:06.101Z,44.76
2022-08-19T17:26:34.216Z,44.28
2022-08-19T17:29:02.485Z,44.14
2022-08-19T17:31:32.574Z,44.39
2022-08-19T17:34:01.643Z,44.72
2022-08-19T17:36:34.776Z,45.06
2022-08-19T17:39:05.319Z,45.29
2022-08-19T17:41:36.907Z,44.97
2022-08-19T17:44:07.299Z,44.79
2022-08-19T17:46:45.332Z,45.33
2022-08-19T17:49:21.830Z,45.43
2022-08-19T17:51:54.324Z,45.66
2022-08-19T17:54:33.924Z,45.60
2022-08-19T17:57:09.756Z,45.79
2022-08-19T17:59:41.150Z,45.50
2022-08-19T18:02:12.458Z,45.25
2022-08-19T18:04:46.841Z,45.91
2022-08-19T18:07:21.971Z,46.23
2022-08-19T18:09:55.643Z,45.95
2022-08-19T18:12:27.310Z,46.21
2022-08-19T18:14:55.806Z,46.45
2022-08-19T18:17:26.285Z,46.67
2022-08-19T18:19:55.070Z,46.47
2022-08-19T18:22:28.492Z,46.98
2022-08-19T18:25:01.123Z,46.96
2022-08-19T18:27:30.897Z,46.78
2022-08-19T18:29:59.932Z,56.01
2022-08-19T18:32:32.039Z,48.23
2022-08-19T18:35:01.120Z,48.15
2022-08-19T18:37:30.933Z,47.69
2022-08-19T18:40:16.846Z,48.14
2022-08-19T18:43:18.233Z,47.91
2022-08-19T18:46:07.117Z,47.97
2022-08-19T18:48:54.100Z,48.32
2022-08-19T18:51:27.735Z,47.69
2022-08-19T18:53:58.881Z,47.48
2022-08-19T18:56:31.900Z,47.64
2022-08-19T18:59:02.792Z,47.85
2022-08-19T19:01:34.197Z,48.22
2022-08-19T19:04:04.952Z,48.00
2022-08-19T19:06:40.206Z,48.20
2022-08-19T19:09:11.220Z,47.99
2022-08-19T19:11:40.939Z,48.03
2022-08-19T19:14:19.205Z,48.00
2022-08-19T19:17:00.405Z,47.94
2022-08-19T19:19:28.212Z,47.73
2022-08-19T19:21:56.554Z,47.49
2022-08-19T19:24:30.412Z,48.33
2022-08-19T19:27:00.610Z,48.08
2022-08-19T19:29:28.557Z,49.29
2022-08-19T19:31:56.868Z,52.28
2022-08-19T19:34:29.831Z,53.08
2022-08-19T19:36:58.104Z,53.23
2022-08-19T19:39:34.024Z,52.71
2022-08-19T19:42:20.388Z,53.65
2022-08-19T19:44:50.364Z,52.39
2022-08-19T19:47:19.228Z,50.81
2022-08-19T19:50:12.796Z,50.33
2022-08-19T19:52:35.385Z,50.59
2022-08-19T19:55:05.466Z,50.72
2022-08-19T19:57:33.156Z,50.49
2022-08-19T20:00:00.793Z,50.66
2022-08-19T20:02:28.539Z,50.77
2022-08-19T20:04:57.065Z,50.93
2022-08-19T20:07:44.654Z,50.95
2022-08-19T20:10:13.298Z,51.28
2022-08-19T20:12:41.029Z,51.43
2022-08-19T20:15:10.049Z,51.14
2022-08-19T20:17:42.407Z,51.20
2022-08-19T20:20:11.371Z,51.54
2022-08-19T20:22:39.732Z,51.56
2022-08-19T20:25:08.278Z,51.64
2022-08-19T20:27:50.693Z,51.89
2022-08-19T20:30:20.817Z,51.96
2022-08-19T20:32:50.672Z,51.96
2022-08-19T20:35:20.948Z,52.22
2022-08-19T20:37:49.301Z,52.28
2022-08-19T20:40:21.638Z,52.58
2022-08-19T20:42:51.407Z,52.59
2022-08-19T20:45:32.178Z,53.09
2022-08-19T20:48:02.269Z,53.11
2022-08-19T20:50:30.168Z,53.13
2022-08-19T20:52:59.465Z,53.59
2022-08-19T20:55:28.803Z,53.73
2022-08-19T20:57:58.564Z,53.59
2022-08-19T21:00:26.372Z,54.26
2022-08-19T21:02:53.922Z,54.17
2022-08-19T21:05:21.604Z,55.10
2022-08-19T21:07:49.246Z,55.57
2022-08-19T21:10:17.862Z,55.72
2022-08-19T21:12:46.191Z,55.73
2022-08-19T21:15:16.668Z,56.14
2022-08-19T21:17:44.266Z,56.54
2022-08-19T21:20:12.226Z,56.90
2022-08-19T21:22:39.966Z,57.33
2022-08-19T21:25:08.852Z,57.45
2022-08-19T21:27:36.412Z,57.99
2022-08-19T21:30:04.947Z,58.03
2022-08-19T21:32:34.032Z,58.57
2022-08-19T21:35:02.140Z,58.66
2022-08-19T21:37:33.373Z,58.81
2022-08-19T21:40:01.458Z,58.63
2022-08-19T21:42:29.096Z,58.92
2022-08-19T21:44:56.832Z,59.00
2022-08-19T21:47:24.530Z,59.53
2022-08-19T21:49:53.533Z,60.24
2022-08-19T21:52:23.237Z,60.49
2022-08-19T21:54:50.899Z,60.56
2022-08-19T21:57:19.061Z,60.86
2022-08-19T21:59:47.759Z,61.20
2022-08-19T22:02:21.577Z,61.18
2022-08-19T22:04:50.808Z,62.07
2022-08-19T22:07:21.323Z,62.24
2022-08-19T22:09:51.574Z,62.62
2022-08-19T22:12:25.792Z,62.89
2022-08-19T22:14:54.355Z,63.22
2022-08-19T22:17:23.232Z,63.52
2022-08-19T22:19:52.298Z,63.71
2022-08-19T22:22:26.491Z,64.25
2022-08-19T22:24:55.604Z,64.38
2022-08-19T22:27:23.887Z,64.69
2022-08-19T22:29:52.588Z,64.68
2022-08-19T22:32:26.708Z,65.28
2022-08-19T22:34:58.349Z,66.01
2022-08-19T22:37:29.100Z,66.15
2022-08-19T22:39:56.956Z,66.93
2022-08-19T22:42:25.679Z,67.37
2022-08-19T22:45:00.036Z,67.10
2022-08-19T22:47:29.491Z,67.11
2022-08-19T22:50:01.994Z,67.31
2022-08-19T22:52:30.015Z,67.52
2022-08-19T22:55:01.301Z,68.29
2022-08-19T22:57:29.449Z,67.80
2022-08-19T22:59:58.869Z,68.29
2022-08-19T23:02:31.467Z,68.24
2022-08-19T23:05:02.115Z,68.51
2022-08-19T23:07:32.203Z,69.52
2022-08-19T23:10:00.147Z,69.68
2022-08-19T23:12:30.536Z,69.99
2022-08-19T23:15:03.297Z,69.76
2022-08-19T23:17:30.944Z,70.13
2022-08-19T23:19:59.788Z,70.32
2022-08-19T23:22:29.361Z,70.69
2022-08-19T23:25:02.504Z,70.65
2022-08-19T23:27:46.636Z,70.55
2022-08-19T23:30:29.364Z,70.99
2022-08-19T23:32:58.896Z,71.40
2022-08-19T23:35:28.312Z,71.52
2022-08-19T23:37:57.078Z,71.55
2022-08-19T23:40:26.316Z,72.39
2022-08-19T23:42:54.646Z,72.08
2022-08-19T23:45:24.904Z,72.30
2022-08-19T23:47:53.749Z,72.85
2022-08-19T23:50:21.754Z,72.72
2022-08-19T23:52:51.229Z,73.04
2022-08-19T23:55:20.776Z,72.97
2022-08-19T23:57:50.024Z,73.06
